Terminal Aerodrome Forecast
Issued by NWS

Home | Current Version | Previous Version | Text Only | Print | Product List | Glossary Off
Versions: 1 2 3 4 5 6 7 8 9 10 11 12 13 14

000
FTUS45 KGGW 021700
TAFSDY
TAF
KSDY 021720Z 0218/0318 19012KT P6SM FEW200
     FM022100 27015KT P6SM FEW120 SCT230
     FM030000 32016KT P6SM VCSH BKN027 OVC110
     FM030600 34021KT P6SM BKN040
      AMD LTD TO CLD VIS AND WIND=

USA.gov is the U.S. government's official web portal to all federal, state and local government web resources and services.